NKS2469 KRDU-KLGA
Flight info
| Callsign | NKS2469 |
|---|---|
| Flight time | 1h 18m |
| Altitude | 35000 |
| Route | BEXGO5 BOUSY GEARS Q87 HURTS PROUD2 |
| Aircraft | A320/M-SDE3FGHIRWY/LB1 |
Departure
| Time | 2026-05-07 01:50 |
|---|---|
| Airport | Raleigh-Durham International Airport (KRDU) |
Arrival
| Time | 2026-05-07 03:08 |
|---|---|
| Airport | LaGuardia Airport (KLGA) |
| Time | Latitude | Longitude | Altitude | Speed | Heading |
|---|---|---|---|---|---|
| 2026-05-07 01:23 | 35.87842 | -78.79303 | 392 ft | 0 kts | 138° |
| 2026-05-07 01:38 | 35.87843 | -78.79305 | 392 ft | 2 kts | 138° |
| 2026-05-07 01:38 | 35.87862 | -78.79325 | 392 ft | 4 kts | 131° |
| 2026-05-07 01:38 | 35.87875 | -78.79353 | 392 ft | 4 kts | 95° |
| 2026-05-07 01:38 | 35.87870 | -78.79379 | 392 ft | 2 kts | 45° |
| 2026-05-07 01:39 | 35.87866 | -78.79384 | 392 ft | 0 kts | 45° |
| 2026-05-07 01:41 | 35.87867 | -78.79383 | 392 ft | 1 kts | 45° |
| 2026-05-07 01:41 | 35.87891 | -78.79353 | 392 ft | 8 kts | 45° |
| 2026-05-07 01:41 | 35.87944 | -78.79289 | 392 ft | 13 kts | 45° |
| 2026-05-07 01:41 | 35.88018 | -78.79197 | 392 ft | 17 kts | 45° |
| 2026-05-07 01:42 | 35.88106 | -78.79087 | 392 ft | 19 kts | 46° |
| 2026-05-07 01:42 | 35.88205 | -78.78959 | 391 ft | 22 kts | 46° |
| 2026-05-07 01:42 | 35.88318 | -78.78819 | 391 ft | 24 kts | 43° |
| 2026-05-07 01:42 | 35.88440 | -78.78668 | 392 ft | 25 kts | 46° |
| 2026-05-07 01:43 | 35.88568 | -78.78506 | 392 ft | 27 kts | 45° |
| 2026-05-07 01:43 | 35.88710 | -78.78336 | 392 ft | 29 kts | 44° |
| 2026-05-07 01:43 | 35.88859 | -78.78151 | 392 ft | 31 kts | 45° |
| 2026-05-07 01:43 | 35.88993 | -78.77934 | 392 ft | 33 kts | 64° |
| 2026-05-07 01:44 | 35.89127 | -78.77743 | 392 ft | 24 kts | 45° |
| 2026-05-07 01:44 | 35.89223 | -78.77647 | 392 ft | 13 kts | 2° |
| 2026-05-07 01:44 | 35.89271 | -78.77690 | 392 ft | 0 kts | 314° |
| 2026-05-07 01:44 | 35.89275 | -78.77696 | 392 ft | 2 kts | 314° |
| 2026-05-07 01:45 | 35.89290 | -78.77714 | 392 ft | 4 kts | 314° |
| 2026-05-07 01:45 | 35.89295 | -78.77721 | 392 ft | 0 kts | 314° |
| 2026-05-07 01:45 | 35.89297 | -78.77723 | 392 ft | 1 kts | 314° |
| 2026-05-07 01:45 | 35.89298 | -78.77725 | 392 ft | 0 kts | 314° |
| 2026-05-07 01:47 | 35.89300 | -78.77727 | 392 ft | 1 kts | 314° |
| 2026-05-07 01:47 | 35.89305 | -78.77734 | 392 ft | 0 kts | 314° |
| 2026-05-07 01:48 | 35.89317 | -78.77748 | 392 ft | 9 kts | 314° |
| 2026-05-07 01:48 | 35.89347 | -78.77843 | 392 ft | 14 kts | 249° |
| 2026-05-07 01:48 | 35.89329 | -78.77872 | 392 ft | 0 kts | 225° |
| 2026-05-07 01:49 | 35.89304 | -78.77902 | 392 ft | 29 kts | 225° |
| 2026-05-07 01:49 | 35.88926 | -78.78365 | 392 ft | 120 kts | 225° |
| 2026-05-07 01:49 | 35.88188 | -78.79269 | 433 ft | 169 kts | 225° |
| 2026-05-07 01:49 | 35.87298 | -78.80364 | 730 ft | 192 kts | 225° |
| 2026-05-07 01:50 | 35.86317 | -78.81586 | 1243 ft | 212 kts | 226° |
| 2026-05-07 01:50 | 35.85250 | -78.82935 | 2034 ft | 221 kts | 227° |
| 2026-05-07 01:50 | 35.84180 | -78.84298 | 2930 ft | 228 kts | 228° |
| 2026-05-07 01:50 | 35.83059 | -78.85740 | 3872 ft | 234 kts | 229° |
| 2026-05-07 01:51 | 35.81931 | -78.87208 | 4853 ft | 238 kts | 230° |
| 2026-05-07 01:51 | 35.80785 | -78.88711 | 5709 ft | 247 kts | 230° |
| 2026-05-07 01:51 | 35.79607 | -78.90275 | 5950 ft | 250 kts | 231° |
| 2026-05-07 01:51 | 35.78418 | -78.91844 | 5999 ft | 250 kts | 231° |
| 2026-05-07 01:52 | 35.77233 | -78.93406 | 6001 ft | 249 kts | 231° |
| 2026-05-07 01:52 | 35.76053 | -78.94966 | 6003 ft | 248 kts | 231° |
| 2026-05-07 01:52 | 35.74892 | -78.96503 | 6005 ft | 248 kts | 234° |
| 2026-05-07 01:52 | 35.74157 | -78.98369 | 6001 ft | 244 kts | 261° |
| 2026-05-07 01:53 | 35.74314 | -79.00429 | 6007 ft | 248 kts | 289° |
| 2026-05-07 01:53 | 35.75298 | -79.02198 | 6011 ft | 256 kts | 308° |
| 2026-05-07 01:53 | 35.76563 | -79.03751 | 6007 ft | 257 kts | 310° |
| 2026-05-07 01:53 | 35.77862 | -79.05287 | 6338 ft | 261 kts | 311° |
| 2026-05-07 01:54 | 35.79175 | -79.06834 | 7278 ft | 262 kts | 310° |
| 2026-05-07 01:54 | 35.80507 | -79.08390 | 8158 ft | 266 kts | 311° |
| 2026-05-07 01:54 | 35.81947 | -79.09855 | 9034 ft | 276 kts | 324° |
| 2026-05-07 01:54 | 35.83824 | -79.10585 | 9887 ft | 295 kts | 350° |
| 2026-05-07 01:55 | 35.85904 | -79.10139 | 10580 ft | 320 kts | 17° |
| 2026-05-07 01:55 | 35.87798 | -79.08463 | 10825 ft | 354 kts | 42° |
| 2026-05-07 01:55 | 35.89459 | -79.06090 | 11166 ft | 374 kts | 50° |
| 2026-05-07 01:55 | 35.90988 | -79.03447 | 11735 ft | 382 kts | 53° |
| 2026-05-07 01:56 | 35.92459 | -79.00714 | 11937 ft | 383 kts | 54° |
| 2026-05-07 01:56 | 35.93926 | -78.97975 | 11997 ft | 382 kts | 53° |
| 2026-05-07 01:56 | 35.95411 | -78.95284 | 12000 ft | 382 kts | 52° |
| 2026-05-07 01:56 | 35.96956 | -78.92593 | 12000 ft | 381 kts | 51° |
| 2026-05-07 01:57 | 35.98518 | -78.89948 | 12001 ft | 381 kts | 50° |
| 2026-05-07 01:57 | 36.00097 | -78.87317 | 12001 ft | 381 kts | 50° |
| 2026-05-07 01:57 | 36.01682 | -78.84691 | 12000 ft | 382 kts | 50° |
| 2026-05-07 01:57 | 36.03275 | -78.82046 | 12192 ft | 387 kts | 50° |
| 2026-05-07 01:58 | 36.04876 | -78.79379 | 13025 ft | 387 kts | 50° |
| 2026-05-07 01:58 | 36.06483 | -78.76689 | 13792 ft | 391 kts | 50° |
| 2026-05-07 01:58 | 36.08101 | -78.73968 | 14445 ft | 395 kts | 50° |
| 2026-05-07 01:58 | 36.09716 | -78.71247 | 15064 ft | 399 kts | 50° |
| 2026-05-07 01:59 | 36.11366 | -78.68458 | 15690 ft | 404 kts | 49° |
| 2026-05-07 01:59 | 36.13037 | -78.65634 | 16254 ft | 409 kts | 49° |
| 2026-05-07 01:59 | 36.14727 | -78.62780 | 16837 ft | 413 kts | 49° |
| 2026-05-07 01:59 | 36.16433 | -78.59899 | 17426 ft | 417 kts | 48° |
| 2026-05-07 02:00 | 36.18156 | -78.56984 | 18004 ft | 422 kts | 48° |
| 2026-05-07 02:00 | 36.19895 | -78.54038 | 18557 ft | 426 kts | 48° |
| 2026-05-07 02:00 | 36.21656 | -78.51058 | 19022 ft | 432 kts | 48° |
| 2026-05-07 02:00 | 36.23437 | -78.48041 | 19534 ft | 435 kts | 48° |
| 2026-05-07 02:01 | 36.25230 | -78.44996 | 20081 ft | 439 kts | 49° |
| 2026-05-07 02:01 | 36.27115 | -78.42032 | 20588 ft | 437 kts | 41° |
| 2026-05-07 02:01 | 36.29330 | -78.39476 | 21103 ft | 432 kts | 31° |
| 2026-05-07 02:01 | 36.31734 | -78.37238 | 21587 ft | 434 kts | 30° |
| 2026-05-07 02:02 | 36.34161 | -78.34992 | 22088 ft | 437 kts | 30° |
| 2026-05-07 02:02 | 36.36607 | -78.32726 | 22567 ft | 440 kts | 30° |
| 2026-05-07 02:02 | 36.39063 | -78.30443 | 23035 ft | 443 kts | 30° |
| 2026-05-07 02:02 | 36.41538 | -78.28137 | 23538 ft | 446 kts | 30° |
| 2026-05-07 02:03 | 36.44029 | -78.25815 | 23903 ft | 450 kts | 30° |
| 2026-05-07 02:03 | 36.46544 | -78.23467 | 24269 ft | 454 kts | 30° |
| 2026-05-07 02:03 | 36.49076 | -78.21100 | 24642 ft | 457 kts | 30° |
| 2026-05-07 02:03 | 36.51625 | -78.18713 | 24998 ft | 461 kts | 30° |
| 2026-05-07 02:04 | 36.54184 | -78.16309 | 25363 ft | 464 kts | 30° |
| 2026-05-07 02:04 | 36.56770 | -78.13871 | 25778 ft | 467 kts | 30° |
| 2026-05-07 02:04 | 36.58489 | -78.12246 | 26026 ft | 470 kts | 30° |
| 2026-05-07 02:04 | 36.61100 | -78.09774 | 26388 ft | 473 kts | 30° |
| 2026-05-07 02:05 | 36.64585 | -78.06474 | 26875 ft | 477 kts | 30° |
| 2026-05-07 02:05 | 36.67242 | -78.03959 | 27163 ft | 482 kts | 30° |
| 2026-05-07 02:05 | 36.69923 | -78.01424 | 27492 ft | 486 kts | 30° |
| 2026-05-07 02:05 | 36.71733 | -77.99673 | 27720 ft | 491 kts | 33° |
| 2026-05-07 02:06 | 36.74077 | -77.96500 | 28055 ft | 507 kts | 51° |
| 2026-05-07 02:06 | 36.75838 | -77.92640 | 28410 ft | 514 kts | 59° |
| 2026-05-07 02:06 | 36.77440 | -77.88715 | 28809 ft | 516 kts | 60° |
| 2026-05-07 02:06 | 36.79070 | -77.84711 | 29179 ft | 519 kts | 60° |
| 2026-05-07 02:07 | 36.80709 | -77.80691 | 29501 ft | 522 kts | 60° |
| 2026-05-07 02:07 | 36.84028 | -77.72580 | 30182 ft | 528 kts | 60° |
| 2026-05-07 02:07 | 36.85713 | -77.68481 | 30410 ft | 532 kts | 60° |
| 2026-05-07 02:08 | 36.87400 | -77.64360 | 30704 ft | 534 kts | 59° |
| 2026-05-07 02:08 | 36.89082 | -77.60204 | 31067 ft | 535 kts | 59° |
| 2026-05-07 02:08 | 36.90741 | -77.56037 | 31430 ft | 536 kts | 59° |
| 2026-05-07 02:08 | 36.92375 | -77.51853 | 31828 ft | 536 kts | 59° |
| 2026-05-07 02:09 | 36.93990 | -77.47642 | 32177 ft | 538 kts | 59° |
| 2026-05-07 02:09 | 36.95586 | -77.43410 | 32538 ft | 539 kts | 59° |
| 2026-05-07 02:09 | 36.97164 | -77.39142 | 32892 ft | 542 kts | 60° |
| 2026-05-07 02:09 | 36.98671 | -77.34877 | 33240 ft | 544 kts | 60° |
| 2026-05-07 02:10 | 37.00174 | -77.30532 | 33599 ft | 545 kts | 60° |
| 2026-05-07 02:10 | 37.01661 | -77.26159 | 33950 ft | 547 kts | 60° |
| 2026-05-07 02:10 | 37.03162 | -77.21701 | 34281 ft | 547 kts | 59° |
| 2026-05-07 02:10 | 37.04854 | -77.17553 | 34636 ft | 542 kts | 55° |
| 2026-05-07 02:11 | 37.06465 | -77.13259 | 34872 ft | 547 kts | 59° |
| 2026-05-07 02:11 | 37.07990 | -77.08896 | 34940 ft | 547 kts | 59° |
| 2026-05-07 02:11 | 37.11025 | -77.00153 | 34940 ft | 547 kts | 59° |
| 2026-05-07 02:12 | 37.14059 | -76.91419 | 34937 ft | 547 kts | 59° |
| 2026-05-07 02:12 | 37.17101 | -76.82686 | 34924 ft | 545 kts | 59° |
| 2026-05-07 02:13 | 37.20488 | -76.74311 | 34927 ft | 525 kts | 42° |
| 2026-05-07 02:13 | 37.22971 | -76.71110 | 34944 ft | 499 kts | 25° |
| 2026-05-07 02:13 | 37.25852 | -76.68951 | 34922 ft | 468 kts | 8° |
| 2026-05-07 02:14 | 37.28878 | -76.67933 | 34914 ft | 435 kts | 351° |
| 2026-05-07 02:14 | 37.31769 | -76.68058 | 34908 ft | 401 kts | 333° |
| 2026-05-07 02:14 | 37.34267 | -76.69227 | 34902 ft | 370 kts | 316° |
| 2026-05-07 02:14 | 37.36142 | -76.71248 | 34902 ft | 346 kts | 299° |
| 2026-05-07 02:15 | 37.37225 | -76.73858 | 34901 ft | 333 kts | 282° |
| 2026-05-07 02:15 | 37.37410 | -76.76730 | 34894 ft | 333 kts | 264° |
| 2026-05-07 02:15 | 37.36283 | -76.82430 | 34899 ft | 338 kts | 259° |
| 2026-05-07 02:16 | 37.35020 | -76.88148 | 34916 ft | 340 kts | 259° |
| 2026-05-07 02:16 | 37.33763 | -76.93852 | 34925 ft | 341 kts | 259° |
| 2026-05-07 02:17 | 37.32500 | -76.99599 | 34929 ft | 341 kts | 259° |
| 2026-05-07 02:17 | 37.31243 | -77.05335 | 34933 ft | 341 kts | 259° |
| 2026-05-07 02:18 | 37.29987 | -77.11072 | 34934 ft | 340 kts | 259° |
| 2026-05-07 02:18 | 37.28733 | -77.16801 | 34937 ft | 340 kts | 259° |
| 2026-05-07 02:19 | 37.27555 | -77.22549 | 34938 ft | 337 kts | 266° |
| 2026-05-07 02:19 | 37.27642 | -77.25462 | 34958 ft | 335 kts | 280° |
| 2026-05-07 02:19 | 37.28506 | -77.28197 | 34954 ft | 344 kts | 295° |
| 2026-05-07 02:20 | 37.30139 | -77.30472 | 34948 ft | 364 kts | 312° |
| 2026-05-07 02:20 | 37.32488 | -77.31936 | 34927 ft | 397 kts | 332° |
| 2026-05-07 02:20 | 37.35367 | -77.32186 | 34925 ft | 438 kts | 353° |
| 2026-05-07 02:20 | 37.38402 | -77.31026 | 34911 ft | 478 kts | 14° |
| 2026-05-07 02:21 | 37.41182 | -77.28474 | 34896 ft | 514 kts | 36° |
| 2026-05-07 02:21 | 37.43319 | -77.24745 | 34892 ft | 540 kts | 57° |
| 2026-05-07 02:21 | 37.44509 | -77.20266 | 34891 ft | 557 kts | 78° |
| 2026-05-07 02:21 | 37.44750 | -77.15307 | 34899 ft | 563 kts | 89° |
| 2026-05-07 02:22 | 37.44886 | -77.05509 | 34901 ft | 562 kts | 79° |
| 2026-05-07 02:22 | 37.45760 | -77.00763 | 34896 ft | 553 kts | 63° |
| 2026-05-07 02:22 | 37.47424 | -76.96491 | 34935 ft | 535 kts | 47° |
| 2026-05-07 02:23 | 37.49761 | -76.92977 | 34913 ft | 513 kts | 30° |
| 2026-05-07 02:23 | 37.52548 | -76.90380 | 34899 ft | 487 kts | 15° |
| 2026-05-07 02:23 | 37.55559 | -76.88664 | 34886 ft | 467 kts | 5° |
| 2026-05-07 02:23 | 37.58589 | -76.87039 | 34900 ft | 482 kts | 13° |
| 2026-05-07 02:24 | 37.64574 | -76.83161 | 34895 ft | 485 kts | 14° |
| 2026-05-07 02:24 | 37.70567 | -76.79205 | 34901 ft | 487 kts | 14° |
| 2026-05-07 02:25 | 37.76563 | -76.75213 | 34897 ft | 487 kts | 14° |
| 2026-05-07 02:25 | 37.82541 | -76.71224 | 34886 ft | 480 kts | 14° |
| 2026-05-07 02:26 | 37.85454 | -76.69258 | 34785 ft | 468 kts | 14° |
| 2026-05-07 02:26 | 37.88291 | -76.67344 | 34661 ft | 456 kts | 13° |
| 2026-05-07 02:26 | 37.91081 | -76.65515 | 34416 ft | 448 kts | 12° |
| 2026-05-07 02:26 | 37.93862 | -76.63758 | 33950 ft | 446 kts | 12° |
| 2026-05-07 02:27 | 37.96653 | -76.62035 | 33370 ft | 447 kts | 12° |
| 2026-05-07 02:27 | 37.99460 | -76.60311 | 32732 ft | 450 kts | 13° |
| 2026-05-07 02:27 | 38.02287 | -76.58566 | 32077 ft | 453 kts | 14° |
| 2026-05-07 02:27 | 38.05129 | -76.56791 | 31408 ft | 458 kts | 15° |
| 2026-05-07 02:28 | 38.07953 | -76.55011 | 30748 ft | 461 kts | 16° |
| 2026-05-07 02:28 | 38.10834 | -76.53176 | 30083 ft | 466 kts | 17° |
| 2026-05-07 02:28 | 38.13776 | -76.51288 | 29348 ft | 469 kts | 17° |
| 2026-05-07 02:28 | 38.16694 | -76.49409 | 28590 ft | 471 kts | 18° |
| 2026-05-07 02:29 | 38.19583 | -76.47546 | 27900 ft | 472 kts | 18° |
| 2026-05-07 02:29 | 38.22513 | -76.45666 | 27240 ft | 472 kts | 18° |
| 2026-05-07 02:29 | 38.25435 | -76.43794 | 26954 ft | 471 kts | 18° |
| 2026-05-07 02:29 | 38.28355 | -76.41895 | 26878 ft | 474 kts | 21° |
| 2026-05-07 02:30 | 38.31137 | -76.39546 | 26908 ft | 485 kts | 30° |
| 2026-05-07 02:30 | 38.33824 | -76.36944 | 26919 ft | 486 kts | 29° |
| 2026-05-07 02:30 | 38.36513 | -76.34321 | 26902 ft | 487 kts | 29° |
| 2026-05-07 02:30 | 38.39198 | -76.31685 | 26900 ft | 488 kts | 29° |
| 2026-05-07 02:31 | 38.41887 | -76.29041 | 26898 ft | 488 kts | 29° |
| 2026-05-07 02:31 | 38.44578 | -76.26400 | 26893 ft | 488 kts | 29° |
| 2026-05-07 02:31 | 38.47266 | -76.23760 | 26894 ft | 488 kts | 29° |
| 2026-05-07 02:31 | 38.49952 | -76.21123 | 26902 ft | 488 kts | 29° |
| 2026-05-07 02:32 | 38.52640 | -76.18486 | 26898 ft | 488 kts | 29° |
| 2026-05-07 02:32 | 38.55331 | -76.15842 | 26937 ft | 488 kts | 28° |
| 2026-05-07 02:32 | 38.58021 | -76.13197 | 26901 ft | 488 kts | 29° |
| 2026-05-07 02:32 | 38.60711 | -76.10550 | 26898 ft | 488 kts | 29° |
| 2026-05-07 02:33 | 38.63401 | -76.07902 | 26903 ft | 488 kts | 28° |
| 2026-05-07 02:33 | 38.66114 | -76.05295 | 26900 ft | 487 kts | 27° |
| 2026-05-07 02:33 | 38.68845 | -76.02742 | 26906 ft | 486 kts | 27° |
| 2026-05-07 02:33 | 38.71585 | -76.00220 | 26903 ft | 486 kts | 27° |
| 2026-05-07 02:34 | 38.74329 | -75.97702 | 26947 ft | 486 kts | 26° |
| 2026-05-07 02:34 | 38.77078 | -75.95166 | 26942 ft | 486 kts | 26° |
| 2026-05-07 02:34 | 38.79814 | -75.92621 | 26925 ft | 486 kts | 27° |
| 2026-05-07 02:34 | 38.82549 | -75.90056 | 26918 ft | 487 kts | 27° |
| 2026-05-07 02:35 | 38.85280 | -75.87484 | 26914 ft | 487 kts | 27° |
| 2026-05-07 02:35 | 38.88008 | -75.84910 | 26912 ft | 487 kts | 27° |
| 2026-05-07 02:35 | 38.90697 | -75.82374 | 26906 ft | 487 kts | 27° |
| 2026-05-07 02:35 | 38.93427 | -75.79801 | 26942 ft | 487 kts | 27° |
| 2026-05-07 02:36 | 38.96164 | -75.77222 | 26889 ft | 492 kts | 26° |
| 2026-05-07 02:36 | 38.98933 | -75.74614 | 26895 ft | 494 kts | 27° |
| 2026-05-07 02:36 | 39.01704 | -75.72001 | 26892 ft | 492 kts | 27° |
| 2026-05-07 02:36 | 39.04429 | -75.69413 | 26442 ft | 485 kts | 27° |
| 2026-05-07 02:37 | 39.07168 | -75.66812 | 25542 ft | 489 kts | 27° |
| 2026-05-07 02:37 | 39.09872 | -75.64230 | 25393 ft | 475 kts | 27° |
| 2026-05-07 02:37 | 39.12482 | -75.61726 | 25261 ft | 461 kts | 27° |
| 2026-05-07 02:37 | 39.15031 | -75.59285 | 25047 ft | 453 kts | 26° |
| 2026-05-07 02:38 | 39.17543 | -75.56892 | 24809 ft | 444 kts | 25° |
| 2026-05-07 02:38 | 39.20006 | -75.54551 | 24592 ft | 436 kts | 25° |
| 2026-05-07 02:38 | 39.22428 | -75.52255 | 24374 ft | 427 kts | 25° |
| 2026-05-07 02:38 | 39.24806 | -75.50028 | 24163 ft | 418 kts | 24° |
| 2026-05-07 02:39 | 39.27165 | -75.47904 | 23956 ft | 409 kts | 22° |
| 2026-05-07 02:39 | 39.29493 | -75.45861 | 23751 ft | 401 kts | 22° |
| 2026-05-07 02:39 | 39.31754 | -75.43891 | 23552 ft | 394 kts | 21° |
| 2026-05-07 02:39 | 39.34002 | -75.41925 | 23359 ft | 387 kts | 21° |
| 2026-05-07 02:40 | 39.36212 | -75.39984 | 23135 ft | 381 kts | 22° |
| 2026-05-07 02:40 | 39.38377 | -75.38071 | 22952 ft | 374 kts | 22° |
| 2026-05-07 02:40 | 39.40506 | -75.36184 | 22769 ft | 367 kts | 22° |
| 2026-05-07 02:40 | 39.42592 | -75.34328 | 22583 ft | 361 kts | 22° |
| 2026-05-07 02:41 | 39.44641 | -75.32499 | 22410 ft | 355 kts | 22° |
| 2026-05-07 02:41 | 39.46661 | -75.30696 | 22226 ft | 350 kts | 22° |
| 2026-05-07 02:41 | 39.48647 | -75.28923 | 22057 ft | 344 kts | 22° |
| 2026-05-07 02:41 | 39.50603 | -75.27174 | 21880 ft | 339 kts | 22° |
| 2026-05-07 02:42 | 39.52547 | -75.25413 | 21513 ft | 344 kts | 23° |
| 2026-05-07 02:42 | 39.54503 | -75.23604 | 21136 ft | 348 kts | 24° |
| 2026-05-07 02:42 | 39.56474 | -75.21760 | 20752 ft | 350 kts | 25° |
| 2026-05-07 02:42 | 39.58451 | -75.19898 | 20368 ft | 353 kts | 26° |
| 2026-05-07 02:43 | 39.60441 | -75.18018 | 19982 ft | 355 kts | 26° |
| 2026-05-07 02:43 | 39.62444 | -75.16126 | 19596 ft | 357 kts | 27° |
| 2026-05-07 02:43 | 39.64432 | -75.14252 | 19213 ft | 359 kts | 27° |
| 2026-05-07 02:43 | 39.66458 | -75.12350 | 18821 ft | 360 kts | 28° |
| 2026-05-07 02:44 | 39.68498 | -75.10447 | 18429 ft | 361 kts | 27° |
| 2026-05-07 02:44 | 39.70563 | -75.08613 | 18021 ft | 361 kts | 26° |
| 2026-05-07 02:44 | 39.72669 | -75.06799 | 17574 ft | 362 kts | 26° |
| 2026-05-07 02:44 | 39.74776 | -75.05004 | 17104 ft | 362 kts | 26° |
| 2026-05-07 02:45 | 39.76886 | -75.03217 | 16663 ft | 363 kts | 26° |
| 2026-05-07 02:45 | 39.79009 | -75.01434 | 16234 ft | 363 kts | 26° |
| 2026-05-07 02:45 | 39.81134 | -74.99666 | 15811 ft | 363 kts | 26° |
| 2026-05-07 02:45 | 39.83266 | -74.97911 | 15393 ft | 362 kts | 26° |
| 2026-05-07 02:46 | 39.85400 | -74.96169 | 14981 ft | 362 kts | 26° |
| 2026-05-07 02:46 | 39.87537 | -74.94441 | 14577 ft | 362 kts | 26° |
| 2026-05-07 02:46 | 39.89679 | -74.92724 | 14177 ft | 361 kts | 26° |
| 2026-05-07 02:46 | 39.91825 | -74.91017 | 13801 ft | 361 kts | 26° |
| 2026-05-07 02:47 | 39.93974 | -74.89324 | 13377 ft | 361 kts | 26° |
| 2026-05-07 02:47 | 39.96124 | -74.87635 | 12932 ft | 361 kts | 26° |
| 2026-05-07 02:47 | 39.98204 | -74.85787 | 12497 ft | 365 kts | 39° |
| 2026-05-07 02:47 | 39.99790 | -74.83201 | 12096 ft | 368 kts | 61° |
| 2026-05-07 02:48 | 40.00922 | -74.80260 | 12023 ft | 355 kts | 63° |
| 2026-05-07 02:48 | 40.01991 | -74.77472 | 12038 ft | 341 kts | 63° |
| 2026-05-07 02:48 | 40.03050 | -74.74780 | 12038 ft | 327 kts | 58° |
| 2026-05-07 02:48 | 40.04324 | -74.72404 | 11963 ft | 315 kts | 47° |
| 2026-05-07 02:49 | 40.05822 | -74.70222 | 11185 ft | 332 kts | 44° |
| 2026-05-07 02:49 | 40.07407 | -74.67966 | 10624 ft | 341 kts | 44° |
| 2026-05-07 02:49 | 40.09019 | -74.65675 | 10143 ft | 344 kts | 44° |
| 2026-05-07 02:49 | 40.10637 | -74.63369 | 9855 ft | 341 kts | 44° |
| 2026-05-07 02:50 | 40.12212 | -74.61108 | 9694 ft | 333 kts | 44° |
| 2026-05-07 02:50 | 40.13753 | -74.58882 | 9509 ft | 326 kts | 45° |
| 2026-05-07 02:50 | 40.15253 | -74.56711 | 9335 ft | 319 kts | 45° |
| 2026-05-07 02:50 | 40.16725 | -74.54579 | 9153 ft | 312 kts | 45° |
| 2026-05-07 02:51 | 40.18166 | -74.52491 | 8995 ft | 306 kts | 44° |
| 2026-05-07 02:51 | 40.19580 | -74.50444 | 8812 ft | 300 kts | 44° |
| 2026-05-07 02:51 | 40.20963 | -74.48492 | 8662 ft | 293 kts | 42° |
| 2026-05-07 02:51 | 40.22393 | -74.46630 | 8507 ft | 286 kts | 40° |
| 2026-05-07 02:52 | 40.23815 | -74.44853 | 8358 ft | 280 kts | 39° |
| 2026-05-07 02:52 | 40.25211 | -74.43131 | 8208 ft | 273 kts | 39° |
| 2026-05-07 02:52 | 40.26580 | -74.41440 | 8063 ft | 268 kts | 39° |
| 2026-05-07 02:52 | 40.27931 | -74.39757 | 7923 ft | 267 kts | 39° |
| 2026-05-07 02:53 | 40.29277 | -74.38075 | 7775 ft | 269 kts | 39° |
| 2026-05-07 02:53 | 40.30630 | -74.36375 | 7625 ft | 270 kts | 38° |
| 2026-05-07 02:53 | 40.31986 | -74.34663 | 7463 ft | 270 kts | 39° |
| 2026-05-07 02:53 | 40.33324 | -74.32967 | 7332 ft | 267 kts | 39° |
| 2026-05-07 02:54 | 40.34654 | -74.31280 | 7187 ft | 265 kts | 39° |
| 2026-05-07 02:54 | 40.35982 | -74.29598 | 7041 ft | 266 kts | 39° |
| 2026-05-07 02:54 | 40.37309 | -74.27918 | 6903 ft | 264 kts | 39° |
| 2026-05-07 02:54 | 40.38623 | -74.26254 | 6744 ft | 262 kts | 39° |
| 2026-05-07 02:55 | 40.39933 | -74.24592 | 6606 ft | 261 kts | 39° |
| 2026-05-07 02:55 | 40.41240 | -74.22929 | 6448 ft | 262 kts | 39° |
| 2026-05-07 02:55 | 40.42526 | -74.21243 | 6326 ft | 262 kts | 47° |
| 2026-05-07 02:55 | 40.43316 | -74.19115 | 6172 ft | 261 kts | 81° |
| 2026-05-07 02:56 | 40.43600 | -74.16799 | 6027 ft | 261 kts | 81° |
| 2026-05-07 02:56 | 40.44002 | -74.14470 | 5879 ft | 262 kts | 75° |
| 2026-05-07 02:56 | 40.44519 | -74.12197 | 5717 ft | 258 kts | 72° |
| 2026-05-07 02:56 | 40.45040 | -74.09948 | 5568 ft | 257 kts | 73° |
| 2026-05-07 02:57 | 40.45569 | -74.07711 | 5435 ft | 256 kts | 73° |
| 2026-05-07 02:57 | 40.46112 | -74.05475 | 5292 ft | 258 kts | 72° |
| 2026-05-07 02:57 | 40.46661 | -74.03234 | 5144 ft | 257 kts | 72° |
| 2026-05-07 02:57 | 40.47203 | -74.01003 | 4993 ft | 256 kts | 72° |
| 2026-05-07 02:58 | 40.47733 | -73.98787 | 4841 ft | 252 kts | 72° |
| 2026-05-07 02:58 | 40.48077 | -73.97339 | 4728 ft | 249 kts | 72° |
| 2026-05-07 02:58 | 40.48583 | -73.95173 | 4579 ft | 247 kts | 72° |
| 2026-05-07 02:58 | 40.49082 | -73.93024 | 4430 ft | 245 kts | 72° |
| 2026-05-07 02:59 | 40.49577 | -73.90886 | 4305 ft | 244 kts | 72° |
| 2026-05-07 02:59 | 40.50066 | -73.88743 | 4228 ft | 244 kts | 72° |
| 2026-05-07 02:59 | 40.50555 | -73.86601 | 4230 ft | 244 kts | 72° |
| 2026-05-07 02:59 | 40.51044 | -73.84465 | 4233 ft | 244 kts | 72° |
| 2026-05-07 03:00 | 40.51531 | -73.82335 | 4229 ft | 244 kts | 72° |
| 2026-05-07 03:00 | 40.52022 | -73.80199 | 4234 ft | 244 kts | 72° |
| 2026-05-07 03:00 | 40.52514 | -73.78061 | 4234 ft | 244 kts | 72° |
| 2026-05-07 03:00 | 40.53006 | -73.75928 | 4234 ft | 244 kts | 72° |
| 2026-05-07 03:01 | 40.53503 | -73.73790 | 4237 ft | 245 kts | 72° |
| 2026-05-07 03:01 | 40.53999 | -73.71653 | 4234 ft | 244 kts | 72° |
| 2026-05-07 03:01 | 40.54492 | -73.69516 | 4233 ft | 244 kts | 72° |
| 2026-05-07 03:01 | 40.54985 | -73.67378 | 4234 ft | 244 kts | 72° |
| 2026-05-07 03:02 | 40.55465 | -73.65300 | 4230 ft | 231 kts | 72° |
| 2026-05-07 03:02 | 40.56025 | -73.63343 | 4225 ft | 227 kts | 55° |
| 2026-05-07 03:02 | 40.57093 | -73.61877 | 4232 ft | 219 kts | 25° |
| 2026-05-07 03:02 | 40.58464 | -73.61230 | 4107 ft | 208 kts | 357° |
| 2026-05-07 03:03 | 40.59836 | -73.61422 | 4000 ft | 194 kts | 332° |
| 2026-05-07 03:03 | 40.60993 | -73.62236 | 3968 ft | 187 kts | 319° |
| 2026-05-07 03:03 | 40.62091 | -73.63150 | 3926 ft | 187 kts | 320° |
| 2026-05-07 03:03 | 40.63191 | -73.64055 | 3885 ft | 187 kts | 320° |
| 2026-05-07 03:04 | 40.64294 | -73.64961 | 3844 ft | 187 kts | 320° |
| 2026-05-07 03:04 | 40.65397 | -73.65867 | 3736 ft | 187 kts | 321° |
| 2026-05-07 03:04 | 40.66495 | -73.66772 | 3545 ft | 185 kts | 321° |
| 2026-05-07 03:04 | 40.67585 | -73.67672 | 3343 ft | 185 kts | 321° |
| 2026-05-07 03:05 | 40.68560 | -73.68725 | 3134 ft | 179 kts | 307° |
| 2026-05-07 03:05 | 40.69334 | -73.70004 | 2882 ft | 178 kts | 303° |
| 2026-05-07 03:05 | 40.70047 | -73.71342 | 2636 ft | 178 kts | 302° |
| 2026-05-07 03:05 | 40.70739 | -73.72695 | 2398 ft | 178 kts | 302° |
| 2026-05-07 03:06 | 40.71425 | -73.74053 | 2148 ft | 177 kts | 302° |
| 2026-05-07 03:06 | 40.72105 | -73.75406 | 1898 ft | 177 kts | 302° |
| 2026-05-07 03:06 | 40.72781 | -73.76753 | 1674 ft | 176 kts | 302° |
| 2026-05-07 03:06 | 40.73455 | -73.78095 | 1430 ft | 175 kts | 302° |
| 2026-05-07 03:07 | 40.74125 | -73.79432 | 1191 ft | 174 kts | 302° |
| 2026-05-07 03:07 | 40.74791 | -73.80763 | 955 ft | 175 kts | 302° |
| 2026-05-07 03:07 | 40.75466 | -73.82113 | 745 ft | 176 kts | 303° |
| 2026-05-07 03:07 | 40.76098 | -73.83400 | 636 ft | 160 kts | 302° |
| 2026-05-07 03:08 | 40.76671 | -73.84593 | 400 ft | 146 kts | 304° |
| 2026-05-07 03:08 | 40.77197 | -73.85686 | 84 ft | 134 kts | 302° |
| 2026-05-07 03:08 | 40.77647 | -73.86618 | 15 ft | 108 kts | 303° |
| 2026-05-07 03:08 | 40.77897 | -73.87143 | 14 ft | 23 kts | 301° |
| 2026-05-07 03:09 | 40.77904 | -73.87294 | 15 ft | 7 kts | 245° |
| 2026-05-07 03:09 | 40.77903 | -73.87298 | 16 ft | 2 kts | 245° |
| 2026-05-07 03:09 | 40.77886 | -73.87346 | 15 ft | 10 kts | 245° |
| 2026-05-07 03:09 | 40.77829 | -73.87403 | 14 ft | 12 kts | 202° |
| 2026-05-07 03:10 | 40.77770 | -73.87356 | 15 ft | 11 kts | 90° |
| 2026-05-07 03:10 | 40.77737 | -73.87281 | 19 ft | 8 kts | 178° |
| 2026-05-07 03:10 | 40.77725 | -73.87283 | 20 ft | 3 kts | 186° |
| 2026-05-07 03:10 | 40.77679 | -73.87311 | 20 ft | 10 kts | 207° |
| 2026-05-07 03:11 | 40.77666 | -73.87317 | 21 ft | 2 kts | 195° |
| 2026-05-07 03:11 | 40.77614 | -73.87317 | 20 ft | 0 kts | 178° |